SPZO Airport Information

Runway Information
Runway 10 Length 11146 ft width 148 ft
Elevation 10860 ft Threshold 0 ft Heading 96
Runway 28 Length 11146 ft Width 148 ft
Elevation 10702 ft Threshold 0 ft Heading 276
Airport Frequencies
Type APP Name CUSCO APP Frequency 120.6 MHZ
Type ATIS Name ATIS Frequency 127 MHZ
Type GND Name GND Frequency 121.9 MHZ
Type TWR Name CUSCO TWR Frequency 118.1 MHZ
Airport Navaids
Type VOR-DME Name Urcos Frequency 115600 KHZ
Type VOR-DME Name Cusco Frequency 114900 KHZ
Airport Weather Information & NOTAM
ADDS - METARS form results

(0851 UTC 24 April 2018)
 
METAR text: SPZO 240800Z 00000KT 9999 NSC 09/05 Q1032 RMK BIRD HAZARD RWY 28 PP000
Conditions at: SPZO (CUZCO/VELAZCO AS, PE) observed 0800 UTC 24 April 2018
Temperature: 9.0°C (48°F)
Dewpoint: 5.0°C (41°F) [RH = 76%]
Pressure (altimeter): 30.47 inches Hg (1032.0 mb)
Winds: calm
Visibility: 6 or more miles (10+ km)
Ceiling: at least 12,000 feet AGL
Clouds: sky clear below 12,000 feet AGL
Weather: no significant weather observed at this time